Denver ARTCC

A member of the VATUSA division of VATSIM
Online Controllers
No online controllers
Airport Weather
KDEN VFR 000 @ 04 30.05
KASE VFR 150 @ 14 30.21
KCOS VFR 140 @ 15 30.11
KGJT VFR 000 @ 06 29.99
Airport Search

Airport Information

KASE Aspen–Pitkin County Airport

KASE 251953Z 15014G20KT 10SM CLR 24/M13 A3021 RMK AO2 SLP111 T02441128


© 2018 Denver ARTCC. All rights reserved. Information contained on this website is intended for simulation purposes only. Do not use for real world operations. We are not affiliated with the FAA or any other government agency. Photographs provided courtesy of Denver International Airport. Developed by Mark Swan.